createdAt,value
2018-06-10T00:00:48.658Z,7.80
2018-06-10T00:03:18.307Z,7.17
2018-06-10T00:05:47.754Z,7.05
2018-06-10T00:08:17.418Z,7.55
2018-06-10T00:10:47.018Z,7.58
2018-06-10T00:13:16.531Z,6.95
2018-06-10T00:15:46.961Z,7.35
2018-06-10T00:18:16.700Z,7.50
2018-06-10T00:20:46.293Z,8.58
2018-06-10T00:23:15.842Z,8.50
2018-06-10T00:25:45.304Z,7.45
2018-06-10T00:28:14.853Z,8.15
2018-06-10T00:30:44.563Z,8.80
2018-06-10T00:33:14.163Z,7.12
2018-06-10T00:35:43.840Z,8.85
2018-06-10T00:38:13.461Z,8.53
2018-06-10T00:40:42.930Z,10.03
2018-06-10T00:43:12.535Z,8.85
2018-06-10T00:45:42.133Z,8.25
2018-06-10T00:48:11.649Z,7.85
2018-06-10T00:50:41.937Z,7.72
2018-06-10T00:53:11.447Z,6.72
2018-06-10T00:55:41.036Z,7.65
2018-06-10T00:58:10.562Z,6.97
2018-06-10T01:00:40.150Z,6.50
2018-06-10T01:03:09.726Z,7.10
2018-06-10T01:05:39.179Z,6.50
2018-06-10T01:08:08.668Z,7.45
2018-06-10T01:10:38.313Z,6.97
2018-06-10T01:13:08.259Z,6.65
2018-06-10T01:15:37.724Z,6.35
2018-06-10T01:18:07.241Z,6.60
2018-06-10T01:20:36.657Z,6.92
2018-06-10T01:23:06.223Z,6.25
2018-06-10T01:25:35.689Z,6.70
2018-06-10T01:28:05.185Z,7.85
2018-06-10T01:30:34.652Z,7.42
2018-06-10T01:33:04.151Z,7.83
2018-06-10T01:35:33.600Z,7.22
2018-06-10T01:38:03.048Z,7.75
2018-06-10T01:40:32.648Z,7.80
2018-06-10T01:43:02.234Z,7.45
2018-06-10T01:45:31.725Z,6.78
2018-06-10T01:48:01.228Z,6.67
2018-06-10T01:50:30.878Z,6.10
2018-06-10T01:53:00.276Z,6.33
2018-06-10T01:55:29.744Z,7.37
2018-06-10T01:57:59.210Z,7.15
2018-06-10T02:00:28.652Z,6.03
2018-06-10T02:02:58.152Z,6.42
2018-06-10T02:05:27.596Z,6.25
2018-06-10T02:07:57.039Z,6.00
2018-06-10T02:10:26.477Z,6.72
2018-06-10T02:12:55.877Z,7.33
2018-06-10T02:15:25.433Z,6.00
2018-06-10T02:17:54.907Z,6.28
2018-06-10T02:20:25.271Z,6.35
2018-06-10T02:22:54.877Z,6.22
2018-06-10T02:25:24.420Z,6.30
2018-06-10T02:27:53.854Z,6.40
2018-06-10T02:30:23.560Z,5.85
2018-06-10T02:32:53.068Z,5.90
2018-06-10T02:35:22.455Z,7.30
2018-06-10T02:37:52.052Z,5.95
2018-06-10T02:40:21.695Z,5.75
2018-06-10T02:42:51.317Z,6.67
2018-06-10T02:45:20.843Z,6.72
2018-06-10T02:47:50.289Z,7.65
2018-06-10T02:50:19.741Z,6.08
2018-06-10T02:52:49.110Z,6.55
2018-06-10T02:55:18.555Z,6.33
2018-06-10T02:57:48.002Z,5.87
2018-06-10T03:00:17.455Z,5.78
2018-06-10T03:02:46.927Z,5.75
2018-06-10T03:05:16.433Z,6.62
2018-06-10T03:07:45.906Z,6.25
2018-06-10T03:10:15.366Z,6.47
2018-06-10T03:12:44.777Z,5.83
2018-06-10T03:15:14.236Z,6.47
2018-06-10T03:17:43.712Z,6.62
2018-06-10T03:20:13.177Z,6.45
2018-06-10T03:22:42.593Z,5.80
2018-06-10T03:25:12.106Z,6.33
2018-06-10T03:27:41.513Z,5.95
2018-06-10T03:30:11.095Z,6.33
2018-06-10T03:32:40.557Z,5.62
2018-06-10T03:35:10.033Z,5.58
2018-06-10T03:37:39.534Z,5.58
2018-06-10T03:40:09.157Z,6.45
2018-06-10T03:42:38.577Z,5.55
2018-06-10T03:45:08.129Z,6.47
2018-06-10T03:47:37.669Z,6.22
2018-06-10T03:50:07.338Z,5.83
2018-06-10T03:52:36.873Z,5.90
2018-06-10T03:55:06.426Z,5.35
2018-06-10T03:57:35.910Z,5.92
2018-06-10T04:00:05.566Z,6.03
2018-06-10T04:02:35.036Z,5.65
2018-06-10T04:05:04.665Z,5.17
2018-06-10T04:07:34.261Z,6.03
2018-06-10T04:10:03.758Z,6.47
2018-06-10T04:12:33.299Z,5.22
2018-06-10T04:15:02.840Z,4.67
2018-06-10T04:17:32.298Z,5.67
2018-06-10T04:20:02.099Z,6.10
2018-06-10T04:22:31.596Z,6.08
2018-06-10T04:25:01.080Z,5.37
2018-06-10T04:27:30.592Z,6.70
2018-06-10T04:30:00.157Z,6.28
2018-06-10T04:32:29.586Z,6.20
2018-06-10T04:34:59.137Z,6.85
2018-06-10T04:37:28.593Z,5.78
2018-06-10T04:39:58.106Z,5.78
2018-06-10T04:42:27.585Z,6.50
2018-06-10T04:44:57.004Z,7.42
2018-06-10T04:47:28.743Z,6.72
2018-06-10T04:49:58.869Z,6.42
2018-06-10T04:52:28.524Z,6.70
2018-06-10T04:54:58.197Z,5.85
2018-06-10T04:57:27.653Z,7.25
2018-06-10T04:59:57.246Z,6.72
2018-06-10T05:02:26.818Z,6.80
2018-06-10T05:04:56.224Z,6.53
2018-06-10T05:07:25.690Z,6.10
2018-06-10T05:09:55.214Z,6.58
2018-06-10T05:12:24.713Z,6.70
2018-06-10T05:14:54.217Z,7.45
2018-06-10T05:17:23.772Z,6.08
2018-06-10T05:19:53.411Z,6.78
2018-06-10T05:22:22.887Z,6.85
2018-06-10T05:24:52.460Z,7.15
2018-06-10T05:27:21.961Z,6.80
2018-06-10T05:29:51.463Z,6.95
2018-06-10T05:32:20.882Z,6.97
2018-06-10T05:34:50.339Z,6.33
2018-06-10T05:37:19.861Z,6.17
2018-06-10T05:39:49.328Z,6.28
2018-06-10T05:42:18.817Z,6.95
2018-06-10T05:44:48.359Z,6.85
2018-06-10T05:47:17.934Z,7.87
2018-06-10T05:49:47.425Z,6.72
2018-06-10T05:52:16.959Z,6.92
2018-06-10T05:54:46.462Z,6.50
2018-06-10T05:57:16.065Z,7.20
2018-06-10T05:59:45.521Z,7.10
2018-06-10T06:02:15.141Z,8.28
2018-06-10T06:04:44.579Z,6.97
2018-06-10T06:07:14.116Z,7.62
2018-06-10T06:09:43.688Z,7.40
2018-06-10T06:12:13.202Z,7.83
2018-06-10T06:14:42.697Z,8.33
2018-06-10T06:17:12.159Z,8.13
2018-06-10T06:19:41.607Z,8.25
2018-06-10T06:22:11.085Z,7.62
2018-06-10T06:24:40.573Z,7.97
2018-06-10T06:27:10.128Z,7.17
2018-06-10T06:29:39.585Z,6.83
2018-06-10T06:32:09.034Z,6.65
2018-06-10T06:34:38.410Z,7.47
2018-06-10T06:37:07.814Z,7.47
2018-06-10T06:39:37.022Z,7.25
2018-06-10T06:42:06.655Z,6.97
2018-06-10T06:44:36.167Z,7.87
2018-06-10T06:47:05.766Z,7.42
2018-06-10T06:49:35.144Z,9.00
2018-06-10T06:52:04.680Z,7.78
2018-06-10T06:54:34.075Z,8.18
2018-06-10T06:57:03.461Z,8.33
2018-06-10T06:59:32.952Z,9.43
2018-06-10T07:02:02.699Z,9.23
2018-06-10T07:04:32.296Z,8.85
2018-06-10T07:07:01.741Z,7.87
2018-06-10T07:09:31.077Z,7.78
2018-06-10T07:12:00.625Z,7.17
2018-06-10T07:14:30.335Z,6.90
2018-06-10T07:16:59.871Z,6.67
2018-06-10T07:19:29.987Z,6.22
2018-06-10T07:21:59.454Z,5.87
2018-06-10T07:24:28.821Z,5.35
2018-06-10T07:26:58.341Z,5.53
2018-06-10T07:29:27.809Z,5.47
2018-06-10T07:31:57.323Z,5.15
2018-06-10T07:34:26.769Z,5.30
2018-06-10T07:36:56.222Z,5.53
2018-06-10T07:39:25.622Z,5.40
2018-06-10T07:41:55.114Z,5.10
2018-06-10T07:44:24.568Z,4.58
2018-06-10T07:46:54.059Z,5.17
2018-06-10T07:49:23.537Z,4.80
2018-06-10T07:51:54.124Z,5.33
2018-06-10T07:54:23.599Z,5.40
2018-06-10T07:56:54.157Z,4.87
2018-06-10T07:59:23.568Z,4.67
2018-06-10T08:01:53.037Z,5.05
2018-06-10T08:04:22.595Z,5.20
2018-06-10T08:06:52.081Z,5.05
2018-06-10T08:09:21.632Z,5.37
2018-06-10T08:11:51.085Z,5.08
2018-06-10T08:14:20.678Z,5.37
2018-06-10T08:16:50.620Z,5.05
2018-06-10T08:19:21.136Z,4.53
2018-06-10T08:21:50.720Z,5.87
2018-06-10T08:24:20.563Z,4.95
2018-06-10T08:26:50.314Z,4.65
2018-06-10T08:29:20.013Z,5.15
2018-06-10T08:31:49.396Z,5.25
2018-06-10T08:34:18.943Z,5.37
2018-06-10T08:36:48.544Z,5.05
2018-06-10T08:39:17.956Z,5.20
2018-06-10T08:41:47.485Z,5.35
2018-06-10T08:44:17.033Z,5.50
2018-06-10T08:46:46.456Z,5.97
2018-06-10T08:49:16.002Z,5.72
2018-06-10T08:51:45.512Z,5.62
2018-06-10T08:54:14.953Z,5.33
2018-06-10T08:56:44.439Z,5.85
2018-06-10T08:59:13.807Z,5.78
2018-06-10T09:01:43.262Z,5.80
2018-06-10T09:04:12.897Z,5.40
2018-06-10T09:06:42.303Z,5.58
2018-06-10T09:09:11.946Z,5.50
2018-06-10T09:11:41.582Z,5.87
2018-06-10T09:14:12.899Z,5.35
2018-06-10T09:16:42.407Z,5.47
2018-06-10T09:19:11.850Z,5.37
2018-06-10T09:21:41.318Z,5.28
2018-06-10T09:24:10.829Z,5.55
2018-06-10T09:26:40.299Z,5.90
2018-06-10T09:29:09.868Z,6.22
2018-06-10T09:31:39.312Z,5.95
2018-06-10T09:34:08.771Z,6.08
2018-06-10T09:36:38.220Z,7.30
2018-06-10T09:39:09.038Z,6.92
2018-06-10T09:41:38.496Z,7.12
2018-06-10T09:44:08.088Z,6.42
2018-06-10T09:46:37.506Z,5.90
2018-06-10T09:49:07.353Z,5.95
2018-06-10T09:51:36.733Z,6.12
2018-06-10T09:54:06.669Z,5.53
2018-06-10T09:56:36.157Z,6.25
2018-06-10T09:59:05.653Z,6.80
2018-06-10T10:01:35.092Z,6.25
2018-06-10T10:04:04.894Z,8.90
2018-06-10T10:06:34.408Z,7.15
2018-06-10T10:09:04.668Z,6.72
2018-06-10T10:11:34.249Z,7.87
2018-06-10T10:14:03.665Z,7.05
2018-06-10T10:16:33.118Z,7.22
2018-06-10T10:19:02.584Z,8.08
2018-06-10T10:21:32.193Z,7.37
2018-06-10T10:24:01.683Z,7.37
2018-06-10T10:26:31.174Z,7.12
2018-06-10T10:29:00.597Z,8.28
2018-06-10T10:31:30.075Z,21.25
2018-06-10T10:33:59.697Z,10.78
2018-06-10T10:36:29.092Z,10.20
2018-06-10T10:38:58.627Z,12.95
2018-06-10T10:41:28.180Z,9.00
2018-06-10T10:43:57.587Z,7.15
2018-06-10T10:46:27.086Z,9.00
2018-06-10T10:48:56.646Z,7.50
2018-06-10T10:51:26.102Z,14.70
2018-06-10T10:53:55.559Z,10.20
2018-06-10T10:56:25.053Z,10.40
2018-06-10T10:58:54.485Z,12.13
2018-06-10T11:01:23.948Z,11.93
2018-06-10T11:03:53.336Z,16.80
2018-06-10T11:06:22.763Z,8.63
2018-06-10T11:08:52.263Z,14.23
2018-06-10T11:11:21.786Z,9.30
2018-06-10T11:13:51.294Z,8.20
2018-06-10T11:16:20.752Z,7.97
2018-06-10T11:18:51.214Z,7.97
2018-06-10T11:21:20.699Z,7.17
2018-06-10T11:23:50.147Z,6.83
2018-06-10T11:26:20.020Z,9.73
2018-06-10T11:28:49.270Z,10.80
2018-06-10T11:31:18.662Z,8.98
2018-06-10T11:33:48.168Z,9.50
2018-06-10T11:36:17.612Z,7.78
2018-06-10T11:38:47.169Z,7.05
2018-06-10T11:41:16.544Z,8.28
2018-06-10T11:43:45.978Z,7.00
2018-06-10T11:46:15.618Z,7.65
2018-06-10T11:48:46.950Z,7.30
2018-06-10T11:51:16.408Z,7.90
2018-06-10T11:53:45.863Z,8.73
2018-06-10T11:56:15.337Z,7.17
2018-06-10T11:58:44.542Z,8.60
2018-06-10T12:01:14.255Z,9.25
2018-06-10T12:03:44.021Z,8.80
2018-06-10T12:06:13.494Z,8.25
2018-06-10T12:08:42.888Z,9.75
2018-06-10T12:11:12.013Z,8.80
2018-06-10T12:13:41.503Z,7.95
2018-06-10T12:16:11.221Z,8.33
2018-06-10T12:18:41.459Z,8.05
2018-06-10T12:21:10.872Z,8.53
2018-06-10T12:23:40.317Z,7.42
2018-06-10T12:26:09.785Z,7.72
2018-06-10T12:28:39.416Z,6.70
2018-06-10T12:31:08.918Z,7.25
2018-06-10T12:33:38.414Z,7.45
2018-06-10T12:36:07.983Z,7.72
2018-06-10T12:38:37.304Z,9.20
2018-06-10T12:41:07.259Z,8.60
2018-06-10T12:43:37.142Z,7.62
2018-06-10T12:46:09.979Z,7.33
2018-06-10T12:48:40.502Z,8.15
2018-06-10T12:51:11.469Z,6.65
2018-06-10T12:53:43.075Z,7.15
2018-06-10T12:56:12.958Z,6.90
2018-06-10T12:58:42.944Z,6.67
2018-06-10T13:01:12.624Z,8.40
2018-06-10T13:03:42.185Z,8.85
2018-06-10T13:06:12.073Z,7.58
2018-06-10T13:08:41.837Z,7.65
2018-06-10T13:11:11.401Z,9.18
2018-06-10T13:13:41.349Z,8.88
2018-06-10T13:16:10.962Z,8.88
2018-06-10T13:18:41.390Z,8.75
2018-06-10T13:21:11.960Z,9.03
2018-06-10T13:23:41.453Z,8.98
2018-06-10T13:26:10.992Z,9.13
2018-06-10T13:28:40.680Z,7.58
2018-06-10T13:31:10.367Z,8.03
2018-06-10T13:33:39.894Z,8.20
2018-06-10T13:36:09.490Z,7.30
2018-06-10T13:38:41.787Z,8.23
2018-06-10T13:41:11.521Z,8.93
2018-06-10T13:43:41.087Z,8.03
2018-06-10T13:46:10.760Z,9.78
2018-06-10T13:48:40.381Z,7.95
2018-06-10T13:51:09.908Z,7.37
2018-06-10T13:53:39.505Z,8.15
2018-06-10T13:56:09.160Z,8.33
2018-06-10T13:58:38.790Z,7.67
2018-06-10T14:01:08.375Z,7.22
2018-06-10T14:03:38.611Z,8.08
2018-06-10T14:06:08.163Z,7.78
2018-06-10T14:08:37.704Z,7.40
2018-06-10T14:11:07.190Z,7.65
2018-06-10T14:13:36.734Z,7.12
2018-06-10T14:16:06.386Z,7.72
2018-06-10T14:18:35.828Z,8.33
2018-06-10T14:21:05.449Z,8.15
2018-06-10T14:23:35.127Z,10.20
2018-06-10T14:26:04.750Z,9.60
2018-06-10T14:28:34.221Z,9.30
2018-06-10T14:31:04.492Z,8.33
2018-06-10T14:33:34.054Z,7.83
2018-06-10T14:36:03.628Z,8.08
2018-06-10T14:38:34.493Z,8.05
2018-06-10T14:41:03.960Z,8.03
2018-06-10T14:43:33.468Z,7.87
2018-06-10T14:46:03.057Z,8.03
2018-06-10T14:48:32.637Z,7.35
2018-06-10T14:51:02.194Z,9.63
2018-06-10T14:53:31.768Z,9.60
2018-06-10T14:56:01.255Z,9.05
2018-06-10T14:58:31.047Z,9.28
2018-06-10T15:01:00.609Z,8.55
2018-06-10T15:03:30.220Z,7.97
2018-06-10T15:05:59.727Z,7.95
2018-06-10T15:08:29.238Z,8.03
2018-06-10T15:10:58.731Z,7.92
2018-06-10T15:13:28.213Z,8.45
2018-06-10T15:15:57.671Z,8.20
2018-06-10T15:18:27.389Z,7.30
2018-06-10T15:20:56.891Z,8.10
2018-06-10T15:23:26.400Z,7.67
2018-06-10T15:25:56.090Z,7.15
2018-06-10T15:28:25.503Z,7.58
2018-06-10T15:30:55.024Z,7.97
2018-06-10T15:33:24.492Z,7.55
2018-06-10T15:35:53.608Z,6.75
2018-06-10T15:38:23.093Z,7.28
2018-06-10T15:40:52.522Z,7.12
2018-06-10T15:43:22.020Z,7.47
2018-06-10T15:45:51.648Z,6.60
2018-06-10T15:48:21.212Z,7.83
2018-06-10T15:50:50.742Z,8.08
2018-06-10T15:53:20.354Z,7.30
2018-06-10T15:55:49.818Z,6.15
2018-06-10T15:58:19.399Z,6.33
2018-06-10T16:00:48.912Z,6.28
2018-06-10T16:03:18.534Z,6.17
2018-06-10T16:05:48.557Z,6.80
2018-06-10T16:08:18.179Z,6.37
2018-06-10T16:10:47.769Z,6.28
2018-06-10T16:13:23.470Z,6.58
2018-06-10T16:15:53.158Z,6.72
2018-06-10T16:18:22.683Z,6.58
2018-06-10T16:20:52.084Z,5.95
2018-06-10T16:23:21.747Z,7.65
2018-06-10T16:25:51.949Z,8.05
2018-06-10T16:28:21.557Z,7.47
2018-06-10T16:30:51.126Z,7.60
2018-06-10T16:33:20.760Z,6.83
2018-06-10T16:35:50.239Z,8.90
2018-06-10T16:38:19.816Z,7.47
2018-06-10T16:40:49.223Z,9.55
2018-06-10T16:43:19.148Z,9.55
2018-06-10T16:45:48.640Z,9.85
2018-06-10T16:48:19.036Z,9.40
2018-06-10T16:50:48.462Z,9.75
2018-06-10T16:53:17.929Z,11.48
2018-06-10T16:55:47.599Z,11.95
2018-06-10T16:58:17.166Z,12.33
2018-06-10T17:00:46.775Z,9.53
2018-06-10T17:03:16.288Z,8.83
2018-06-10T17:05:46.293Z,9.28
2018-06-10T17:08:15.849Z,10.18
2018-06-10T17:10:45.036Z,9.55
2018-06-10T17:13:14.886Z,8.53
2018-06-10T17:15:44.542Z,9.58
2018-06-10T17:18:14.125Z,10.58
2018-06-10T17:20:44.083Z,11.15
2018-06-10T17:23:13.659Z,11.00
2018-06-10T17:25:43.403Z,11.57
2018-06-10T17:28:14.070Z,11.12
2018-06-10T17:30:43.598Z,10.40
2018-06-10T17:33:13.113Z,11.57
2018-06-10T17:35:42.609Z,10.85
2018-06-10T17:38:12.132Z,11.38
2018-06-10T17:40:41.856Z,10.63
2018-06-10T17:43:11.384Z,10.93
2018-06-10T17:45:41.111Z,11.25
2018-06-10T17:48:10.658Z,11.70
2018-06-10T17:50:40.144Z,11.53
2018-06-10T17:53:09.960Z,11.73
2018-06-10T17:55:39.126Z,12.07
2018-06-10T17:58:08.973Z,11.95
2018-06-10T18:00:38.613Z,11.30
2018-06-10T18:03:08.145Z,10.68
2018-06-10T18:05:37.847Z,9.60
2018-06-10T18:08:07.386Z,9.78
2018-06-10T18:10:37.268Z,9.45
2018-06-10T18:13:06.730Z,9.33
2018-06-10T18:15:36.217Z,8.50
2018-06-10T18:18:05.873Z,8.25
2018-06-10T18:20:34.987Z,8.45
2018-06-10T18:23:04.458Z,8.10
2018-06-10T18:25:33.977Z,8.10
2018-06-10T18:28:03.366Z,8.40
2018-06-10T18:30:32.829Z,8.70
2018-06-10T18:33:02.242Z,8.18
2018-06-10T18:35:31.704Z,7.70
2018-06-10T18:38:01.168Z,8.35
2018-06-10T18:40:30.746Z,9.18
2018-06-10T18:43:00.126Z,9.33
2018-06-10T18:45:29.645Z,9.35
2018-06-10T18:47:58.895Z,8.58
2018-06-10T18:50:28.528Z,9.23
2018-06-10T18:52:58.093Z,9.35
2018-06-10T18:55:27.663Z,9.18
2018-06-10T18:57:56.807Z,9.23
2018-06-10T19:00:26.365Z,10.00
2018-06-10T19:02:55.857Z,9.10
2018-06-10T19:05:25.419Z,9.65
2018-06-10T19:07:54.872Z,8.60
2018-06-10T19:10:24.531Z,8.63
2018-06-10T19:12:54.162Z,8.70
2018-06-10T19:15:23.654Z,8.48
2018-06-10T19:17:53.105Z,7.80
2018-06-10T19:20:22.666Z,7.62
2018-06-10T19:22:52.343Z,8.40
2018-06-10T19:25:22.624Z,10.25
2018-06-10T19:27:52.190Z,9.65
2018-06-10T19:30:21.936Z,8.93
2018-06-10T19:32:51.593Z,9.88
2018-06-10T19:35:21.225Z,9.98
2018-06-10T19:37:59.297Z,9.80
2018-06-10T19:40:31.776Z,9.35
2018-06-10T19:43:01.372Z,9.35
2018-06-10T19:45:31.113Z,8.80
2018-06-10T19:48:00.970Z,8.83
2018-06-10T19:50:30.586Z,9.25
2018-06-10T19:53:00.170Z,8.30
2018-06-10T19:55:29.786Z,8.25
2018-06-10T19:57:59.380Z,8.13
2018-06-10T20:00:28.944Z,8.15
2018-06-10T20:02:58.454Z,8.63
2018-06-10T20:05:28.260Z,7.80
2018-06-10T20:07:57.980Z,8.03
2018-06-10T20:10:27.617Z,8.08
2018-06-10T20:12:57.452Z,8.83
2018-06-10T20:15:26.959Z,8.65
2018-06-10T20:17:56.641Z,7.92
2018-06-10T20:20:26.206Z,7.90
2018-06-10T20:22:55.713Z,8.70
2018-06-10T20:25:25.258Z,8.27
2018-06-10T20:27:54.719Z,8.58
2018-06-10T20:30:24.225Z,7.95
2018-06-10T20:32:53.641Z,8.75
2018-06-10T20:35:23.310Z,8.38
2018-06-10T20:37:53.054Z,7.83
2018-06-10T20:40:22.726Z,8.08
2018-06-10T20:42:52.211Z,8.18
2018-06-10T20:45:21.924Z,8.20
2018-06-10T20:47:51.502Z,7.37
2018-06-10T20:50:21.005Z,7.90
2018-06-10T20:52:50.576Z,7.83
2018-06-10T20:55:20.157Z,7.62
2018-06-10T20:57:49.759Z,7.83
2018-06-10T21:00:19.473Z,8.65
2018-06-10T21:02:48.922Z,7.75
2018-06-10T21:05:18.419Z,8.25
2018-06-10T21:07:47.971Z,8.23
2018-06-10T21:10:17.535Z,8.58
2018-06-10T21:12:47.220Z,8.15
2018-06-10T21:15:16.829Z,8.98
2018-06-10T21:17:46.433Z,9.35
2018-06-10T21:20:15.979Z,8.53
2018-06-10T21:22:45.405Z,7.67
2018-06-10T21:25:14.907Z,8.40
2018-06-10T21:27:44.378Z,8.48
2018-06-10T21:30:13.917Z,8.83
2018-06-10T21:32:43.346Z,8.28
2018-06-10T21:35:12.893Z,8.03
2018-06-10T21:37:42.505Z,8.28
2018-06-10T21:40:12.712Z,7.80
2018-06-10T21:42:42.236Z,8.85
2018-06-10T21:45:11.705Z,8.48
2018-06-10T21:47:41.396Z,8.38
2018-06-10T21:50:11.138Z,8.38
2018-06-10T21:52:40.716Z,7.95
2018-06-10T21:55:10.204Z,8.08
2018-06-10T21:57:39.740Z,9.28
2018-06-10T22:00:21.241Z,7.67
2018-06-10T22:02:50.760Z,8.75
2018-06-10T22:05:20.378Z,8.40
2018-06-10T22:07:50.112Z,8.55
2018-06-10T22:10:19.685Z,8.48
2018-06-10T22:12:49.256Z,8.95
2018-06-10T22:15:18.853Z,8.25
2018-06-10T22:17:48.708Z,8.13
2018-06-10T22:20:18.518Z,8.80
2018-06-10T22:22:48.064Z,9.03
2018-06-10T22:25:17.554Z,8.58
2018-06-10T22:27:47.993Z,8.98
2018-06-10T22:30:17.406Z,8.55
2018-06-10T22:32:46.921Z,8.95
2018-06-10T22:35:16.584Z,9.35
2018-06-10T22:37:46.383Z,9.20
2018-06-10T22:40:16.772Z,8.65
2018-06-10T22:42:46.367Z,8.63
2018-06-10T22:45:15.875Z,8.18
2018-06-10T22:47:45.381Z,8.15
2018-06-10T22:50:15.026Z,8.70
2018-06-10T22:52:44.608Z,8.78
2018-06-10T22:55:14.160Z,7.53
2018-06-10T22:57:43.657Z,9.70
2018-06-10T23:00:13.491Z,9.30
2018-06-10T23:02:42.941Z,9.03
2018-06-10T23:05:12.465Z,8.78
2018-06-10T23:07:42.875Z,8.18
2018-06-10T23:10:13.177Z,9.20
2018-06-10T23:12:42.844Z,8.78
2018-06-10T23:15:12.435Z,10.03
2018-06-10T23:17:41.863Z,9.48
2018-06-10T23:20:11.395Z,9.95
2018-06-10T23:22:40.834Z,9.80
2018-06-10T23:25:10.294Z,10.13
2018-06-10T23:27:39.831Z,9.40
2018-06-10T23:30:09.543Z,8.55
2018-06-10T23:32:39.282Z,8.83
2018-06-10T23:35:08.897Z,8.95
2018-06-10T23:37:38.483Z,9.13
2018-06-10T23:40:08.667Z,9.40
2018-06-10T23:42:38.329Z,9.15
2018-06-10T23:45:07.904Z,8.78
2018-06-10T23:47:37.368Z,8.75
2018-06-10T23:50:06.788Z,8.55
2018-06-10T23:52:37.233Z,8.90
2018-06-10T23:55:06.675Z,9.15
2018-06-10T23:57:36.166Z,9.05
